Terminal Aerodrome Forecast
Issued by NWS Charleston, WV

Current Version | Previous Version | Text Only | Print | Product List | Glossary Off
Versions: 1 2 3 4 5 6 7 8 9 10 11 12 13 14 15 16 17 18 19 20

000
FTUS41 KRLX 281509 AAA
TAFPKB
TAF AMD
KPKB 281509Z 2815/2912 29007KT P6SM -RA BKN021 OVC027
     FM281700 27008KT P6SM BKN035
     FM282200 27007KT P6SM SCT050
     FM290100 VRB03KT P6SM SCT050
     FM290500 00000KT P6SM BKN200=

USA.gov is the U.S. government's official web portal to all federal, state and local government web resources and services.